Big Horn, WY (82833)

3:47 AM MDT on September 16, 2014 (GMT -0600)
Sheridan County | Change Station
CLOSE
Current Station
Airport
Location: Sheridan,
Elevation: 3967 ft
Nearby Weather Stations

Elev 3967 ft 44.76 °N, 106.97 °W | Updated 54 minutes ago

Clear
Clear
44 °F
Feels Like 44 °F
N
0
Wind Variable Wind from North

Today
High -- | Low -- °F
--% Chance of Precip.
Yesterday
High -- | Low -- °F
Precip. -- in
6:48 AM 7:16 PM
Waning Gibbous, 47% visible
Pressure 30.04 in
Visibility 10.0 miles
Clouds Clear
Dew Point 39 °F
Humidity 82%
Rainfall 0.00 in
Snow Depth 1 in
UV 0 out of 12
Pollen 5.50 out of 12
Air Quality Not available.
Flu Activity Not available.
METAR KSHR 160853Z AUTO 00000KT 10SM CLR 07/04 A3008 RMK AO2 SLP170 T00670039 56005

More Conditions Fewer Conditions

Pressure 30.04 in
Visibility 10.0 miles
Clouds Clear
Dew Point 39 °F
Humidity 82%
Rainfall 0.00 in
Snow Depth 1 in
UV 0 out of 12
Pollen 5.50 out of 12
Air Quality Not available.
Flu Activity Not available.
METAR KSHR 160853Z AUTO 00000KT 10SM CLR 07/04 A3008 RMK AO2 SLP170 T00670039 56005

More Conditions Fewer Conditions

10-Day Weather Forecast

Almanac

Astronomy

Sep. 16, 2014 Rise Set
Actual Time 6:48 AM MDT 7:16 PM MDT
Civil Twilight 6:18 AM MDT 7:45 PM MDT
Nautical Twilight 5:44 AM MDT 8:20 PM MDT
Astronomical Twilight 5:08 AM MDT 8:56 PM MDT
Moon No Moon Rise 2:53 PM MDT
Length of Visible Light 13h 27m
Length of Day
12h 28m
Tomorrow will be 3m 4s shorter.
Waning Gibbous, 47% of the Moon is Illuminated
Today
Waning Gibbous
Sep 24
New
Oct 1
First Quarter
Oct 8
Full
Oct 15
Last Quarter

Today's Extremes

State Highs State Lows

Community

WunderPhotos

Upload Photos

1,753,714 photos uploaded!

WunderBlogs® & News

Nearby

Snow Depth

Station Depth Elevation
Cinnabar Park 0 in 9690 ft
Kelley R.S. 0 in 8180 ft
Sage Creek Basin 0 in 7850 ft
Spring Creek Divide 0 in 9000 ft
Gros Ventre Summit 2 in 8750 ft

Earthquake Activity

City Distance Mag. Time & Date
No recent earthquake activity has been reported nearby.
Minimum magnitude displayed is 2.5.

Coastal Water Temperatures

Place Temperature
No Stations Reporting

Nearby Weather Stations